Time;durP1;ratioP1;P1;durP2;ratioP2;P2;SDS_P1;SDS_P2;PMS_P1;PMS_P2;Temp;Humidity;BMP_temperature;BMP_pressure;BME280_temperature;BME280_humidity;BME280_pressure;Samples;Min_cycle;Max_cycle;Signal;HPM_P1;HPM_P2
2022/06/20 00:00:18;;;;;;;14.70;3.80;;;;;;;13.74;86.57;101180.22;5057745;28;20024;-76
2022/06/20 00:02:46;;;;;;;13.80;3.80;;;;;;;13.72;86.38;101186.72;5051810;28;20545;-76
2022/06/20 00:05:18;;;;;;;18.48;4.60;;;;;;;13.69;86.01;101176.16;5059598;28;20025;-76
2022/06/20 00:07:44;;;;;;;13.88;3.58;;;;;;;13.67;86.03;101178.16;5060967;28;20441;-75
2022/06/20 00:10:15;;;;;;;19.35;4.40;;;;;;;13.64;85.17;101177.38;5064028;28;20111;-76
2022/06/20 00:12:42;;;;;;;16.85;3.85;;;;;;;13.61;85.73;101166.84;5065071;28;20060;-76
2022/06/20 00:15:20;;;;;;;12.90;3.90;;;;;;;13.61;85.62;101187.59;5052727;28;20070;-76
2022/06/20 00:17:46;;;;;;;13.50;3.75;;;;;;;13.57;85.41;101192.41;5064513;28;20033;-76
2022/06/20 00:20:12;;;;;;;16.10;4.05;;;;;;;13.54;85.34;101195.31;5055956;28;20043;-76
2022/06/20 00:22:38;;;;;;;15.30;4.22;;;;;;;13.55;86.33;101199.75;5061333;28;20055;-76
2022/06/20 00:25:03;;;;;;;13.77;3.50;;;;;;;13.56;85.57;101223.09;5063604;28;20028;-76
2022/06/20 00:27:28;;;;;;;14.73;4.03;;;;;;;13.53;85.58;101244.94;5069877;28;20024;-76
2022/06/20 00:29:54;;;;;;;11.73;3.63;;;;;;;13.56;86.35;101244.69;5064148;28;20024;-76
2022/06/20 00:32:20;;;;;;;15.48;3.60;;;;;;;13.58;85.66;101247.25;5052488;28;20028;-76
2022/06/20 00:34:45;;;;;;;17.60;4.75;;;;;;;13.59;85.31;101260.63;5059825;28;20476;-76
2022/06/20 00:37:17;;;;;;;15.25;3.55;;;;;;;13.58;85.46;101277.81;5053631;28;20028;-76
2022/06/20 00:39:43;;;;;;;16.10;3.38;;;;;;;13.61;85.70;101295.63;5069293;28;20043;-76
2022/06/20 00:42:09;;;;;;;17.50;3.60;;;;;;;13.62;85.40;101309.00;5067700;28;20036;-76
2022/06/20 00:44:38;;;;;;;15.23;3.78;;;;;;;13.63;85.01;101334.16;5055957;28;20033;-76
2022/06/20 00:47:09;;;;;;;13.65;3.78;;;;;;;13.69;85.25;101385.03;5060542;28;20033;-76
2022/06/20 00:49:49;;;;;;;11.90;3.45;;;;;;;13.73;85.20;101397.28;5061709;28;20020;-76
2022/06/20 00:52:39;;;;;;;14.57;4.03;;;;;;;13.75;83.94;101438.56;5066256;28;20066;-76
2022/06/20 00:55:30;;;;;;;13.70;3.63;;;;;;;13.85;84.36;101454.06;5052658;28;20043;-76
2022/06/20 00:57:55;;;;;;;12.43;3.58;;;;;;;13.91;83.79;101419.31;5055883;28;20059;-76
2022/06/20 01:00:28;;;;;;;13.43;3.88;;;;;;;13.93;82.93;101398.44;5062099;28;20032;-75
2022/06/20 01:03:02;;;;;;;14.65;3.92;;;;;;;13.92;82.49;101376.94;5060854;28;20052;-75
2022/06/20 01:05:38;;;;;;;15.35;3.60;;;;;;;13.89;82.38;101361.81;5049847;28;20047;-75
2022/06/20 01:08:12;;;;;;;16.50;4.03;;;;;;;13.88;81.99;101367.34;5055542;28;20422;-75
2022/06/20 01:10:44;;;;;;;14.32;4.05;;;;;;;13.86;83.23;101350.41;5061267;28;20060;-76
2022/06/20 01:13:16;;;;;;;11.80;3.20;;;;;;;13.79;84.35;101341.91;5067835;28;20025;-76
2022/06/20 01:15:43;;;;;;;10.90;3.40;;;;;;;13.72;83.50;101324.47;5053554;28;20017;-76
2022/06/20 01:18:24;;;;;;;16.23;3.53;;;;;;;13.66;83.50;101323.16;5059969;28;20534;-76
2022/06/20 01:20:52;;;;;;;16.40;3.85;;;;;;;13.60;85.32;101308.28;5069306;28;20028;-76
2022/06/20 01:23:31;;;;;;;14.85;3.50;;;;;;;13.58;85.50;101302.13;5064241;28;20055;-76
2022/06/20 01:26:05;;;;;;;11.27;3.35;;;;;;;13.58;87.22;101290.47;5068364;28;20032;-76
2022/06/20 01:28:38;;;;;;;16.73;4.10;;;;;;;13.59;87.63;101284.94;5056877;28;20025;-76
2022/06/20 01:31:04;;;;;;;10.45;3.40;;;;;;;13.54;87.68;101279.03;5064124;28;20044;-76
2022/06/20 01:33:30;;;;;;;14.75;4.03;;;;;;;13.51;87.52;101273.88;5063032;28;20476;-76
2022/06/20 01:38:43;;;;;;;13.93;3.80;;;;;;;13.44;87.41;101275.34;5058871;28;20094;-76
2022/06/20 01:43:55;;;;;;;16.65;3.97;;;;;;;13.37;86.75;101255.25;5065289;28;20135;-76
2022/06/20 01:46:25;;;;;;;17.02;4.80;;;;;;;13.34;86.94;101250.94;5054565;28;20033;-76
2022/06/20 01:48:54;;;;;;;9.55;3.45;;;;;;;13.27;86.56;101250.50;5058992;28;20033;-76
2022/06/20 01:51:33;;;;;;;17.50;4.32;;;;;;;13.27;87.33;101250.50;5064466;28;20035;-76
2022/06/20 01:53:59;;;;;;;14.93;4.55;;;;;;;13.22;86.98;101247.31;5060036;28;20054;-76
2022/06/20 01:56:27;;;;;;;16.83;3.75;;;;;;;13.20;87.23;101249.25;5064265;28;20028;-76
2022/06/20 01:59:00;;;;;;;14.35;3.78;;;;;;;13.20;87.03;101248.41;5061804;28;20035;-76
2022/06/20 02:01:28;;;;;;;14.60;4.47;;;;;;;13.17;87.21;101235.16;5068042;28;20024;-76
2022/06/20 02:03:53;;;;;;;15.52;3.88;;;;;;;13.16;87.50;101231.59;5055282;28;20029;-76
2022/06/20 02:06:19;;;;;;;14.35;3.92;;;;;;;13.16;87.28;101220.78;5060462;28;20047;-76
2022/06/20 02:08:49;;;;;;;21.20;4.28;;;;;;;13.12;86.35;101224.72;5060871;28;20025;-75
2022/06/20 02:11:32;;;;;;;19.05;4.18;;;;;;;13.13;86.74;101215.63;5065738;28;20368;-75
2022/06/20 02:14:03;;;;;;;14.27;3.47;;;;;;;13.13;86.95;101212.09;5079351;28;20035;-75
2022/06/20 02:16:33;;;;;;;12.23;3.45;;;;;;;13.12;86.53;101205.84;5054147;28;20063;-75
2022/06/20 02:19:03;;;;;;;16.90;4.10;;;;;;;13.13;87.25;101199.44;5061315;28;20487;-75
2022/06/20 02:21:31;;;;;;;12.25;3.25;;;;;;;13.13;87.33;101195.91;5075147;28;20118;-75
2022/06/20 02:24:04;;;;;;;15.00;3.70;;;;;;;13.11;87.15;101190.63;5060586;28;20045;-75
2022/06/20 02:26:33;;;;;;;14.20;3.47;;;;;;;13.08;86.43;101185.47;5066766;28;20033;-75
2022/06/20 02:29:08;;;;;;;13.32;3.25;;;;;;;13.10;87.39;101197.88;5065405;28;20032;-75
2022/06/20 02:31:34;;;;;;;15.70;4.05;;;;;;;13.11;86.97;101190.63;5066521;28;20028;-75
2022/06/20 02:34:00;;;;;;;14.10;3.60;;;;;;;13.10;86.17;101188.91;5061073;28;20017;-75
2022/06/20 02:36:26;;;;;;;14.68;3.78;;;;;;;13.14;86.90;101195.78;5061331;28;20392;-75
2022/06/20 02:38:52;;;;;;;14.60;3.70;;;;;;;13.15;86.63;101192.09;5067471;28;20017;-75
2022/06/20 02:41:22;;;;;;;13.43;3.50;;;;;;;13.13;86.19;101190.50;5071074;28;20162;-75
2022/06/20 02:43:59;;;;;;;16.20;3.55;;;;;;;13.12;85.93;101186.94;5062324;28;20032;-75
2022/06/20 02:46:28;;;;;;;13.90;3.38;;;;;;;13.09;85.18;101177.25;5072624;28;20498;-75
2022/06/20 02:48:55;;;;;;;13.43;3.80;;;;;;;13.09;85.82;101181.81;5053359;28;20032;-75
2022/06/20 02:51:27;;;;;;;14.00;3.50;;;;;;;13.03;84.73;101174.16;5070207;28;20025;-75
2022/06/20 02:53:57;;;;;;;10.70;3.17;;;;;;;13.02;85.80;101164.38;5053999;28;20036;-75
2022/06/20 02:56:26;;;;;;;15.80;3.35;;;;;;;13.00;85.07;101153.69;5060403;28;20111;-76
2022/06/20 02:58:59;;;;;;;12.38;2.92;;;;;;;12.97;86.09;101144.97;5054559;28;20028;-76
2022/06/20 03:01:35;;;;;;;14.07;3.10;;;;;;;12.96;85.67;101136.03;5057351;28;20032;-76
2022/06/20 03:04:01;;;;;;;13.43;3.33;;;;;;;12.95;85.20;101131.59;5053711;28;20174;-76
2022/06/20 03:06:31;;;;;;;14.55;3.15;;;;;;;12.91;84.33;101143.63;5051384;28;20471;-76
2022/06/20 03:08:57;;;;;;;14.55;3.60;;;;;;;12.91;85.07;101152.59;5056542;28;20020;-75
2022/06/20 03:11:26;;;;;;;13.13;3.55;;;;;;;12.89;84.87;101151.81;5064960;28;20028;-75
2022/06/20 03:13:53;;;;;;;12.85;3.78;;;;;;;12.89;85.20;101159.06;5055587;28;20040;-75
2022/06/20 03:16:21;;;;;;;13.00;3.40;;;;;;;12.91;85.09;101157.09;5066141;28;20032;-75
2022/06/20 03:18:50;;;;;;;18.15;3.97;;;;;;;12.90;85.46;101163.50;5060382;28;20033;-75
2022/06/20 03:21:22;;;;;;;13.90;3.97;;;;;;;12.90;85.42;101169.75;5072797;28;20491;-75
2022/06/20 03:23:49;;;;;;;14.63;3.67;;;;;;;12.88;85.52;101174.38;5060057;28;20106;-76
2022/06/20 03:26:19;;;;;;;12.43;3.78;;;;;;;12.85;85.18;101174.63;5070936;28;20017;-76
2022/06/20 03:28:44;;;;;;;14.57;3.63;;;;;;;12.83;85.48;101184.69;5055797;28;20499;-76
2022/06/20 03:31:10;;;;;;;14.52;2.95;;;;;;;12.85;85.20;101169.22;5055480;28;20024;-76
2022/06/20 03:33:36;;;;;;;12.25;3.25;;;;;;;12.85;85.48;101174.63;5055502;28;20100;-76
2022/06/20 03:36:15;;;;;;;11.30;3.38;;;;;;;12.82;85.36;101185.66;5065560;28;20012;-76
2022/06/20 03:38:43;;;;;;;10.57;3.10;;;;;;;12.82;85.49;101192.91;5063568;28;20476;-76
2022/06/20 03:41:12;;;;;;;9.63;3.05;;;;;;;12.82;85.20;101203.69;5053081;28;20032;-76
2022/06/20 03:43:40;;;;;;;7.38;2.42;;;;;;;12.83;85.47;101218.91;5068446;28;20025;-76
2022/06/20 03:46:14;;;;;;;8.98;2.80;;;;;;;12.85;84.29;101223.19;5053057;28;20040;-76
2022/06/20 03:48:44;;;;;;;13.70;3.08;;;;;;;12.91;85.10;101232.63;5058874;28;20021;-76
2022/06/20 03:51:19;;;;;;;14.85;3.28;;;;;;;12.93;85.59;101236.09;5083693;28;20036;-76
2022/06/20 03:53:57;;;;;;;10.85;3.20;;;;;;;12.94;85.29;101241.38;5060386;28;20108;-76
2022/06/20 03:56:30;;;;;;;13.95;3.17;;;;;;;12.93;86.45;101252.28;5066866;28;20032;-76
2022/06/20 03:59:14;;;;;;;11.70;2.97;;;;;;;12.98;86.43;101249.22;5059355;28;20033;-76
2022/06/20 04:01:48;;;;;;;12.32;3.55;;;;;;;12.92;86.65;101245.16;5055040;28;20396;-76
2022/06/20 04:04:26;;;;;;;16.70;3.53;;;;;;;12.94;86.75;101244.06;5051859;28;20116;-76
2022/06/20 04:07:02;;;;;;;14.20;3.47;;;;;;;12.97;86.72;101258.28;5053344;28;20032;-76
2022/06/20 04:12:36;;;;;;;11.25;3.13;;;;;;;13.03;86.57;101260.50;5059232;28;20055;-76
2022/06/20 04:15:27;;;;;;;13.23;3.03;;;;;;;13.06;84.65;101257.56;5056835;28;20028;-76
2022/06/20 04:21:01;;;;;;;14.80;3.55;;;;;;;13.16;85.99;101271.22;5063250;28;20052;-76
2022/06/20 04:23:44;;;;;;;15.80;4.07;;;;;;;13.17;85.55;101265.69;5060838;28;20139;-76
2022/06/20 04:26:34;;;;;;;14.15;3.30;;;;;;;13.20;85.86;101273.56;5074921;28;20107;-75
2022/06/20 04:29:22;;;;;;;12.73;3.35;;;;;;;13.27;85.90;101277.50;5055567;28;20539;-75
2022/06/20 04:32:04;;;;;;;13.38;4.28;;;;;;;13.32;86.27;101281.69;5054742;28;20021;-75
2022/06/20 04:34:54;;;;;;;12.65;3.13;;;;;;;13.34;85.98;101283.31;5057487;28;20043;-75
2022/06/20 04:37:28;;;;;;;15.50;3.72;;;;;;;13.38;86.19;101273.13;5053636;28;20373;-75
2022/06/20 04:40:04;;;;;;;12.70;3.58;;;;;;;13.41;85.65;101278.28;5064355;28;20036;-75
2022/06/20 04:42:45;;;;;;;15.10;3.55;;;;;;;13.41;85.20;101284.56;5050698;28;20025;-76
2022/06/20 04:45:22;;;;;;;12.65;3.70;;;;;;;13.43;86.02;101282.59;5058751;28;20063;-76
2022/06/20 04:47:53;;;;;;;12.52;3.95;;;;;;;13.46;86.17;101287.75;5053060;28;20021;-76
2022/06/20 04:50:25;;;;;;;12.95;3.05;;;;;;;13.48;86.12;101295.72;5066022;28;20032;-76
2022/06/20 04:52:55;;;;;;;16.25;3.78;;;;;;;13.52;85.73;101299.91;5063652;28;20119;-76
2022/06/20 04:55:23;;;;;;;16.95;4.30;;;;;;;13.55;85.28;101307.78;5051231;28;20068;-76
2022/06/20 04:57:50;;;;;;;18.27;4.50;;;;;;;13.61;85.16;101307.28;5053716;28;20056;-76
2022/06/20 05:00:22;;;;;;;15.80;3.90;;;;;;;13.70;85.69;101299.44;5053289;28;20025;-76
2022/06/20 05:02:49;;;;;;;14.95;3.92;;;;;;;13.72;85.55;101303.75;5052581;28;20028;-76
2022/06/20 05:05:19;;;;;;;16.27;4.22;;;;;;;13.72;84.98;101303.75;5053032;28;20116;-76
2022/06/20 05:07:47;;;;;;;15.90;4.10;;;;;;;13.76;85.52;101309.75;5053526;28;20021;-75
2022/06/20 05:10:23;;;;;;;13.07;3.80;;;;;;;13.77;84.47;101301.53;5060179;28;20346;-75
2022/06/20 05:12:57;;;;;;;14.18;3.80;;;;;;;13.80;85.46;101303.97;5065526;28;20055;-75
2022/06/20 05:15:46;;;;;;;12.85;3.65;;;;;;;13.85;85.13;101300.06;5050193;28;20056;-75
2022/06/20 05:18:32;;;;;;;16.33;4.32;;;;;;;13.89;86.13;101315.88;5068110;28;20033;-75
2022/06/20 05:21:05;;;;;;;15.40;3.60;;;;;;;13.87;85.87;101311.63;5073102;28;20477;-75
2022/06/20 05:23:36;;;;;;;12.88;3.30;;;;;;;13.89;86.35;101324.00;5064176;28;20043;-74
2022/06/20 05:26:04;;;;;;;17.80;3.92;;;;;;;13.90;86.96;101336.53;5068943;28;20090;-74
2022/06/20 05:28:32;;;;;;;11.68;3.60;;;;;;;13.92;87.71;101336.41;5052807;28;20083;-74
2022/06/20 05:30:59;;;;;;;15.15;3.58;;;;;;;13.90;87.01;101324.88;5054894;28;20033;-74
2022/06/20 05:33:45;;;;;;;13.98;3.63;;;;;;;13.91;86.16;101318.47;5052436;28;20025;-74
2022/06/20 05:36:29;;;;;;;14.43;3.50;;;;;;;13.92;86.96;101315.63;5066940;28;20071;-75
2022/06/20 05:39:06;;;;;;;10.57;3.65;;;;;;;13.93;87.03;101316.53;5052331;28;20041;-75
2022/06/20 05:41:31;;;;;;;11.57;3.53;;;;;;;13.94;85.73;101312.84;5055966;28;20036;-74
2022/06/20 05:43:57;;;;;;;17.60;4.50;;;;;;;13.95;86.29;101304.63;5068475;28;20028;-74
2022/06/20 05:46:27;;;;;;;13.93;3.28;;;;;;;13.95;86.31;101309.13;5067312;28;20085;-75
2022/06/20 05:49:04;;;;;;;13.48;3.38;;;;;;;13.97;86.71;101308.03;5055329;28;20028;-75
2022/06/20 05:51:33;;;;;;;11.52;3.42;;;;;;;13.95;85.96;101310.03;5067634;28;20150;-75
2022/06/20 05:54:04;;;;;;;13.00;3.65;;;;;;;13.99;86.45;101319.56;5064097;28;20046;-75
2022/06/20 05:57:01;;;;;;;11.57;3.70;;;;;;;14.03;84.89;101327.47;5053149;28;20025;-75
2022/06/20 05:59:27;;;;;;;10.98;3.10;;;;;;;14.07;85.83;101329.78;5055594;28;20060;-75
2022/06/20 06:01:57;;;;;;;12.18;3.65;;;;;;;14.10;86.20;101334.94;5058871;28;20133;-75
2022/06/20 06:04:35;;;;;;;18.35;3.55;;;;;;;14.14;84.77;101327.44;5070935;28;20028;-75
2022/06/20 06:07:04;;;;;;;11.43;3.03;;;;;;;14.18;84.35;101330.78;5067327;28;20593;-75
2022/06/20 06:09:46;;;;;;;11.70;3.28;;;;;;;14.21;84.14;101328.66;5059768;28;20020;-75
2022/06/20 06:12:21;;;;;;;11.00;3.60;;;;;;;14.26;84.96;101323.75;5054884;28;20033;-75
2022/06/20 06:14:52;;;;;;;11.02;3.22;;;;;;;14.29;84.99;101326.19;5060167;28;20670;-75
2022/06/20 06:17:35;;;;;;;10.00;3.28;;;;;;;14.32;82.76;101328.66;5073457;28;20025;-75
2022/06/20 06:20:04;;;;;;;12.63;4.05;;;;;;;14.34;84.00;101325.81;5065704;28;20111;-75
2022/06/20 06:22:34;;;;;;;10.80;3.35;;;;;;;14.39;84.71;101328.16;5068070;28;20511;-75
2022/06/20 06:25:17;;;;;;;8.30;3.15;;;;;;;14.44;83.49;101334.06;5070762;28;20028;-75
2022/06/20 06:27:45;;;;;;;14.98;4.10;;;;;;;14.46;82.67;101335.63;5053603;28;20068;-75
2022/06/20 06:30:20;;;;;;;13.20;3.63;;;;;;;14.52;82.88;101345.06;5070324;28;20051;-74
2022/06/20 06:32:53;;;;;;;16.20;2.92;;;;;;;14.55;82.81;101338.56;5058655;28;20040;-74
2022/06/20 06:35:25;;;;;;;13.95;3.30;;;;;;;14.56;81.74;101337.59;5067090;28;20476;-75
2022/06/20 06:37:59;;;;;;;14.50;3.13;;;;;;;14.57;81.64;101337.47;5058268;28;20051;-75
2022/06/20 06:40:37;;;;;;;14.15;3.50;;;;;;;14.58;81.22;101341.00;5066450;28;20032;-75
2022/06/20 06:43:14;;;;;;;9.13;3.15;;;;;;;14.60;81.33;101337.19;5062656;28;20028;-74
2022/06/20 06:45:42;;;;;;;10.70;3.15;;;;;;;14.63;81.10;101347.81;5064857;28;20499;-74
2022/06/20 06:48:19;;;;;;;13.02;3.53;;;;;;;14.66;79.46;101358.38;5070442;28;20036;-75
2022/06/20 06:50:57;;;;;;;14.48;3.45;;;;;;;14.76;80.73;101361.19;5081571;28;20486;-75
2022/06/20 06:53:43;;;;;;;15.32;3.85;;;;;;;14.80;79.35;101369.88;5065978;28;20025;-75
2022/06/20 06:56:11;;;;;;;13.85;3.63;;;;;;;14.86;80.42;101369.38;5069520;28;20435;-75
2022/06/20 06:58:46;;;;;;;11.27;3.38;;;;;;;14.91;79.19;101372.56;5073140;28;20036;-75
2022/06/20 07:01:21;;;;;;;12.13;3.47;;;;;;;14.96;78.11;101367.63;5066006;28;20043;-75
2022/06/20 07:03:52;;;;;;;10.02;3.70;;;;;;;15.08;80.49;101362.16;5067072;28;20090;-75
2022/06/20 07:06:27;;;;;;;10.80;3.45;;;;;;;15.17;79.04;101377.66;5067629;28;20098;-75
2022/06/20 07:09:12;;;;;;;14.85;3.35;;;;;;;15.17;76.75;101375.78;5068566;28;20032;-75
2022/06/20 07:11:44;;;;;;;13.68;3.85;;;;;;;15.14;77.97;101383.28;5071567;28;20017;-75
2022/06/20 07:14:18;;;;;;;9.23;3.30;;;;;;;15.12;78.27;101393.41;5087980;28;20435;-75
2022/06/20 07:16:49;;;;;;;14.00;3.25;;;;;;;15.05;76.79;101384.94;5064997;28;20590;-75
2022/06/20 07:19:15;;;;;;;13.70;3.53;;;;;;;15.00;76.73;101388.03;5073783;28;20032;-75
2022/06/20 07:21:43;;;;;;;10.05;3.25;;;;;;;14.97;77.34;101387.44;5083429;28;20036;-75
2022/06/20 07:24:15;;;;;;;12.75;3.30;;;;;;;14.98;78.41;101390.00;5067357;28;20123;-75
2022/06/20 07:26:50;;;;;;;8.93;3.15;;;;;;;15.02;76.25;101399.59;5063734;28;20051;-75
2022/06/20 07:29:35;;;;;;;9.70;3.13;;;;;;;15.08;75.72;101387.41;5059835;28;20035;-75
2022/06/20 07:32:36;;;;;;;11.25;3.28;;;;;;;15.20;77.18;101389.06;5067379;28;20028;-75
2022/06/20 07:35:08;;;;;;;9.82;3.78;;;;;;;15.34;75.35;101379.78;5072439;28;20048;-75
2022/06/20 07:38:03;;;;;;;16.33;3.53;;;;;;;15.49;76.10;101384.84;5066026;28;20074;-75
2022/06/20 07:41:01;;;;;;;11.40;2.88;;;;;;;15.60;74.67;101383.97;5065965;28;20115;-75
2022/06/20 07:43:52;;;;;;;19.42;3.45;;;;;;;15.64;73.85;101388.97;5072875;28;20047;-76
2022/06/20 07:46:25;;;;;;;9.18;3.08;;;;;;;15.69;72.53;101391.28;5072968;28;20025;-75
2022/06/20 07:48:56;;;;;;;10.98;3.20;;;;;;;15.63;71.84;101392.66;5067496;28;20059;-75
2022/06/20 07:51:29;;;;;;;11.75;3.15;;;;;;;15.63;67.82;101399.94;5067538;28;20029;-75
2022/06/20 07:54:02;;;;;;;14.98;3.15;;;;;;;15.77;72.36;101404.16;5074106;28;20032;-75
2022/06/20 07:56:35;;;;;;;12.30;3.40;;;;;;;15.85;70.49;101398.97;5065505;28;20392;-76
2022/06/20 07:59:07;;;;;;;7.82;2.88;;;;;;;15.91;67.55;101393.00;5061319;28;20467;-74
2022/06/20 08:01:42;;;;;;;11.45;3.47;;;;;;;16.03;69.46;101394.66;5063598;28;20029;-73
2022/06/20 08:04:09;;;;;;;14.95;3.45;;;;;;;16.15;67.32;101403.56;5067895;28;20032;-73
2022/06/20 08:06:42;;;;;;;11.48;3.15;;;;;;;16.22;68.61;101401.16;5066424;28;20422;-73
2022/06/20 08:09:38;;;;;;;11.45;3.97;;;;;;;16.23;68.76;101416.44;5064966;28;20476;-74
2022/06/20 08:12:13;;;;;;;12.85;3.65;;;;;;;16.17;68.13;101406.13;5065613;28;20028;-73
2022/06/20 08:14:56;;;;;;;17.20;3.63;;;;;;;16.10;67.84;101407.66;5062998;28;20036;-73
2022/06/20 08:17:23;;;;;;;10.65;3.42;;;;;;;16.02;69.26;101413.78;5060425;28;20115;-73
2022/06/20 08:19:49;;;;;;;11.93;3.80;;;;;;;15.96;68.49;101414.28;5062472;28;20111;-73
2022/06/20 08:22:21;;;;;;;10.18;3.45;;;;;;;15.90;68.41;101408.44;5062526;28;20032;-73
2022/06/20 08:24:57;;;;;;;10.00;3.10;;;;;;;15.86;67.86;101416.97;5059713;28;20487;-73
2022/06/20 08:27:34;;;;;;;14.48;3.70;;;;;;;15.82;69.41;101410.09;5069491;28;20035;-73
2022/06/20 08:30:13;;;;;;;12.07;4.05;;;;;;;15.77;69.00;101413.16;5070051;28;20089;-73
2022/06/20 08:32:38;;;;;;;;;;;;;;;15.88;70.10;101413.09;5061608;28;20024;-73
2022/06/20 08:35:15;;;;;;;13.07;3.25;;;;;;;15.98;65.41;101409.63;5066222;28;19935;-73
2022/06/20 08:37:47;;;;;;;11.57;3.53;;;;;;;16.15;66.43;101411.69;5071059;28;20681;-73
2022/06/20 08:40:37;;;;;;;8.18;3.22;;;;;;;16.30;66.11;101414.06;5065315;28;20040;-73
2022/06/20 08:43:34;;;;;;;12.13;3.42;;;;;;;16.35;65.70;101426.19;5070728;28;20032;-73
2022/06/20 08:46:13;;;;;;;13.98;3.75;;;;;;;16.30;65.58;101430.34;5072008;28;20029;-73
2022/06/20 08:49:17;;;;;;;14.02;3.72;;;;;;;16.32;67.07;101429.19;5066245;28;20025;-73
2022/06/20 08:52:08;;;;;;;10.77;3.33;;;;;;;16.33;67.69;101436.31;5056993;28;20024;-72
2022/06/20 08:54:54;;;;;;;14.40;3.72;;;;;;;16.28;66.42;101433.16;5066739;28;20024;-73
2022/06/20 08:57:57;;;;;;;12.60;3.80;;;;;;;16.27;65.47;101445.00;5079798;28;20038;-73
2022/06/20 09:00:51;;;;;;;14.93;4.07;;;;;;;16.31;67.92;101435.63;5067386;28;20035;-73
2022/06/20 09:03:40;;;;;;;10.43;3.35;;;;;;;16.36;61.38;101443.34;5067602;28;20473;-73
2022/06/20 09:06:43;;;;;;;9.60;3.15;;;;;;;16.53;62.88;101444.53;5081179;28;20043;-73
2022/06/20 09:09:29;;;;;;;13.10;3.40;;;;;;;16.66;64.78;101442.47;5063239;28;20094;-73
2022/06/20 09:12:13;;;;;;;10.40;3.47;;;;;;;16.74;61.41;101450.75;5067537;28;20024;-73
2022/06/20 09:14:50;;;;;;;17.15;4.95;;;;;;;16.74;63.80;101453.47;5065907;28;20113;-73
2022/06/20 09:17:57;;;;;;;9.23;2.95;;;;;;;16.76;64.94;101458.75;5069621;28;20479;-73
2022/06/20 09:20:48;;;;;;;11.55;3.25;;;;;;;16.74;63.98;101456.19;5078986;28;20044;-73
2022/06/20 09:23:23;;;;;;;12.38;3.22;;;;;;;16.72;63.79;101469.06;5059995;28;20059;-73
2022/06/20 09:26:03;;;;;;;13.68;4.13;;;;;;;16.67;60.81;101460.44;5062478;28;20125;-73
2022/06/20 09:29:33;;;;;;;15.18;3.92;;;;;;;16.70;63.62;101465.59;5068723;28;20446;-73
2022/06/20 09:32:34;;;;;;;10.90;3.50;;;;;;;16.82;60.91;101457.34;5049154;28;20049;-73
2022/06/20 09:35:07;;;;;;;10.82;3.17;;;;;;;16.92;59.42;101464.56;5018782;28;20036;-73
2022/06/20 09:38:01;;;;;;;13.98;4.00;;;;;;;16.98;60.26;101468.56;5048791;28;20032;-74
2022/06/20 09:40:38;;;;;;;11.40;3.28;;;;;;;16.92;55.77;101469.97;5052102;28;20040;-74
2022/06/20 09:43:22;;;;;;;9.70;3.03;;;;;;;16.92;56.85;101458.28;5046695;28;20028;-74
2022/06/20 09:46:02;;;;;;;13.38;3.08;;;;;;;16.98;55.46;101452.28;5050101;28;20040;-74
2022/06/20 09:49:00;;;;;;;15.82;4.18;;;;;;;17.14;58.02;101464.47;5066359;28;20465;-74
2022/06/20 09:52:07;;;;;;;14.48;3.70;;;;;;;17.30;59.41;101459.34;5041938;28;20063;-75
2022/06/20 09:54:41;;;;;;;12.77;3.92;;;;;;;17.43;58.09;101459.91;5052230;28;20037;-75
2022/06/20 09:57:18;;;;;;;14.57;4.32;;;;;;;17.54;59.26;101458.94;5036172;28;20454;-75
2022/06/20 09:59:59;;;;;;;12.80;4.00;;;;;;;17.60;58.35;101460.19;5052491;28;20489;-75
2022/06/20 10:02:54;;;;;;;12.52;4.50;;;;;;;17.61;59.70;101449.22;5035971;28;20082;-75
2022/06/20 10:05:42;;;;;;;14.70;4.88;;;;;;;17.62;56.45;101460.94;5048791;28;20044;-75
2022/06/20 10:08:29;;;;;;;11.13;4.05;;;;;;;17.70;57.30;101462.91;5069270;28;20028;-75
2022/06/20 10:11:10;;;;;;;14.90;4.22;;;;;;;17.68;58.25;101463.06;5053364;28;20179;-75
2022/06/20 10:13:39;;;;;;;16.88;4.63;;;;;;;17.66;56.03;101459.63;5053491;28;20426;-75
2022/06/20 10:16:22;;;;;;;16.02;5.32;;;;;;;17.71;58.61;101465.50;5061529;28;20017;-75
2022/06/20 10:18:56;;;;;;;12.68;4.25;;;;;;;17.84;60.04;101469.78;5073479;28;20028;-75
2022/06/20 10:21:46;;;;;;;22.75;5.28;;;;;;;17.91;57.89;101465.50;5091571;28;20464;-75
2022/06/20 10:24:39;;;;;;;20.67;6.18;;;;;;;17.92;58.27;101468.09;5094608;28;20059;-75
2022/06/20 10:27:32;;;;;;;21.33;5.63;;;;;;;17.88;59.78;101476.63;5068917;28;20499;-75
2022/06/20 10:30:12;;;;;;;16.77;5.22;;;;;;;17.79;58.53;101487.38;5053230;28;20490;-75
2022/06/20 10:32:51;;;;;;;17.70;5.60;;;;;;;17.78;58.67;101488.38;5066691;28;20020;-75
2022/06/20 10:35:18;;;;;;;16.98;5.07;;;;;;;17.83;57.69;101482.50;5065542;28;20028;-75
2022/06/20 10:38:15;;;;;;;15.38;5.47;;;;;;;17.94;58.37;101486.97;5076541;28;20024;-75
2022/06/20 10:41:05;;;;;;;18.27;5.13;;;;;;;18.05;57.45;101483.22;5060007;28;20037;-75
2022/06/20 10:43:36;;;;;;;16.75;5.15;;;;;;;18.03;55.65;101485.25;5058497;28;20059;-75
2022/06/20 10:46:29;;;;;;;13.57;4.60;;;;;;;18.03;54.07;101486.09;5059119;28;20032;-75
2022/06/20 10:49:36;;;;;;;15.80;5.57;;;;;;;18.08;57.65;101494.69;5055868;28;20020;-75
2022/06/20 10:52:27;;;;;;;18.98;5.40;;;;;;;18.13;58.13;101497.81;5054878;28;20025;-75
2022/06/20 10:55:15;;;;;;;18.05;5.88;;;;;;;18.17;56.69;101506.56;5061341;28;20499;-75
2022/06/20 10:58:02;;;;;;;18.73;6.47;;;;;;;18.19;58.06;101506.41;5070401;28;20039;-74
2022/06/20 11:00:33;;;;;;;15.82;4.97;;;;;;;18.27;56.86;101509.25;5067235;28;20496;-74
2022/06/20 11:03:04;;;;;;;14.52;5.25;;;;;;;18.40;56.02;101498.88;5074218;28;20024;-74
2022/06/20 11:05:53;;;;;;;19.25;5.68;;;;;;;18.55;58.14;101512.03;5068298;28;20047;-74
2022/06/20 11:08:53;;;;;;;15.98;5.15;;;;;;;18.56;56.41;101508.31;5052429;28;20392;-74
2022/06/20 11:11:33;;;;;;;19.23;5.18;;;;;;;18.51;55.53;101512.31;5060685;28;20503;-75
2022/06/20 11:14:22;;;;;;;12.27;3.70;;;;;;;18.40;53.72;101515.22;5065306;28;20404;-75
2022/06/20 11:17:08;;;;;;;17.40;4.85;;;;;;;18.38;55.16;101522.69;5072065;28;20025;-74
2022/06/20 11:19:49;;;;;;;27.27;6.88;;;;;;;18.37;54.74;101526.41;5058711;28;20063;-76
2022/06/20 11:22:38;;;;;;;14.85;4.88;;;;;;;18.44;55.06;101513.91;5059217;28;20063;-76
2022/06/20 11:25:19;;;;;;;14.35;4.40;;;;;;;18.63;56.30;101515.72;5057231;28;20045;-76
2022/06/20 11:28:03;;;;;;;15.90;4.97;;;;;;;18.67;52.89;101508.13;5064547;28;20032;-76
2022/06/20 11:30:56;;;;;;;15.43;4.47;;;;;;;18.63;55.34;101504.81;5043607;28;20408;-76
2022/06/20 11:36:31;;;;;;;16.60;4.90;;;;;;;18.66;53.91;101511.84;5056099;28;20364;-76
2022/06/20 11:39:14;;;;;;;14.18;4.22;;;;;;;18.60;53.05;101512.44;5040086;28;20024;-76
2022/06/20 11:41:51;;;;;;;16.48;4.57;;;;;;;18.68;54.45;101507.09;5058588;28;20067;-76
2022/06/20 11:44:54;;;;;;;22.30;6.28;;;;;;;18.78;55.12;101521.53;5050400;28;20983;-76
2022/06/20 11:47:41;;;;;;;16.52;4.43;;;;;;;18.86;55.01;101504.50;5062785;28;20123;-76
2022/06/20 11:50:26;;;;;;;17.70;5.20;;;;;;;18.86;53.06;101504.50;5057530;28;20079;-77
2022/06/20 11:53:06;;;;;;;19.50;4.95;;;;;;;18.96;54.44;101504.41;5059322;28;20119;-77
2022/06/20 11:55:41;;;;;;;20.15;5.13;;;;;;;19.08;54.28;101502.34;5056162;28;20029;-76
2022/06/20 11:58:23;;;;;;;14.75;3.78;;;;;;;19.07;51.28;101509.66;5055270;28;20036;-76
2022/06/20 12:00:53;;;;;;;14.43;4.00;;;;;;;19.17;52.38;101505.03;5038098;28;20048;-76
2022/06/20 12:03:24;;;;;;;11.60;4.03;;;;;;;19.14;47.45;101502.59;5060191;28;20025;-76
2022/06/20 12:06:01;;;;;;;12.75;4.05;;;;;;;19.12;48.15;101506.47;5056536;28;20032;-77
2022/06/20 12:08:36;;;;;;;13.85;3.42;;;;;;;19.07;50.11;101509.66;5047113;28;20029;-76
2022/06/20 12:11:17;;;;;;;10.95;3.15;;;;;;;19.09;51.13;101514.97;5049375;28;20086;-77
2022/06/20 12:14:01;;;;;;;11.57;3.40;;;;;;;19.20;52.43;101515.59;5052247;28;20052;-76